Time,TemperatureF,DewpointF,PressureIn,WindDirection,WindDirectionDegrees,WindSpeedMPH,WindSpeedGustMPH,Humidity,HourlyPrecipIn,Conditions,Clouds,dailyrainin,SoftwareType,DateUTC
2013-06-22 00:09:00,72.5,67.0,30.06,NW,313,0.0,3.0,84,0.00,,,0.00,weatherlink.com 1.10,2013-06-22 04:09:00,
2013-06-22 00:24:00,72.0,67.0,30.06,NW,313,0.0,1.0,84,0.00,,,0.00,weatherlink.com 1.10,2013-06-22 04:24:00,
2013-06-22 00:39:00,71.7,67.0,30.06,NW,313,0.0,1.0,85,0.00,,,0.00,weatherlink.com 1.10,2013-06-22 04:39:00,
2013-06-22 00:54:00,71.3,67.0,30.07,NW,313,0.0,0.0,86,0.00,,,0.00,weatherlink.com 1.10,2013-06-22 04:54:00,
2013-06-22 01:09:00,71.2,67.0,30.07,NW,313,0.0,0.0,86,0.00,,,0.00,weatherlink.com 1.10,2013-06-22 05:09:00,
2013-06-22 01:24:00,71.0,67.0,30.07,NW,313,0.0,0.0,87,0.00,,,0.00,weatherlink.com 1.10,2013-06-22 05:24:00,
2013-06-22 01:39:00,70.8,67.0,30.07,NW,317,0.0,0.0,88,0.00,,,0.00,weatherlink.com 1.10,2013-06-22 05:39:00,
2013-06-22 01:54:00,70.8,67.0,30.06,NNE,26,0.0,1.0,88,0.00,,,0.00,weatherlink.com 1.10,2013-06-22 05:54:00,
2013-06-22 02:09:00,70.8,67.0,30.06,NNE,26,0.0,0.0,87,0.00,,,0.00,weatherlink.com 1.10,2013-06-22 06:09:00,
2013-06-22 02:24:00,70.7,67.0,30.05,NNE,26,0.0,0.0,87,0.00,,,0.00,weatherlink.com 1.10,2013-06-22 06:24:00,
2013-06-22 02:39:00,70.6,67.0,30.03,NNE,26,0.0,0.0,87,0.00,,,0.00,weatherlink.com 1.10,2013-06-22 06:39:00,
2013-06-22 03:09:00,70.2,67.0,30.02,ENE,65,0.0,2.0,88,0.00,,,0.00,weatherlink.com 1.10,2013-06-22 07:09:00,
2013-06-22 03:24:00,70.1,67.0,30.02,ENE,68,1.0,2.0,88,0.00,,,0.00,weatherlink.com 1.10,2013-06-22 07:24:00,
2013-06-22 03:39:00,70.3,66.0,30.01,East,86,3.0,5.0,87,0.00,,,0.00,weatherlink.com 1.10,2013-06-22 07:39:00,
2013-06-22 03:54:00,71.1,67.0,30.01,East,95,6.0,8.0,86,0.00,,,0.00,weatherlink.com 1.10,2013-06-22 07:54:00,
2013-06-22 04:09:00,71.6,67.0,30.01,East,92,3.0,9.0,84,0.00,,,0.00,weatherlink.com 1.10,2013-06-22 08:09:00,
2013-06-22 04:24:00,71.9,67.0,30.01,ESE,107,7.0,8.0,85,0.00,,,0.00,weatherlink.com 1.10,2013-06-22 08:24:00,
2013-06-22 04:39:00,72.2,68.0,30.01,ESE,106,5.0,9.0,85,0.00,,,0.00,weatherlink.com 1.10,2013-06-22 08:39:00,
2013-06-22 04:54:00,72.3,68.0,30.00,ESE,104,9.0,9.0,86,0.00,,,0.00,weatherlink.com 1.10,2013-06-22 08:54:00,
2013-06-22 05:09:00,72.5,68.0,30.00,ESE,109,3.0,9.0,86,0.00,,,0.00,weatherlink.com 1.10,2013-06-22 09:09:00,
2013-06-22 05:24:00,72.3,68.0,30.01,East,100,2.0,7.0,86,0.00,,,0.00,weatherlink.com 1.10,2013-06-22 09:24:00,
2013-06-22 05:39:00,72.3,68.0,30.01,ESE,113,4.0,9.0,86,0.00,,,0.00,weatherlink.com 1.10,2013-06-22 09:39:00,
2013-06-22 05:54:00,72.4,68.0,30.02,ESE,108,3.0,9.0,86,0.00,,,0.00,weatherlink.com 1.10,2013-06-22 09:54:00,
2013-06-22 06:09:00,72.3,68.0,30.02,ESE,107,1.0,9.0,87,0.00,,,0.00,weatherlink.com 1.10,2013-06-22 10:09:00,
2013-06-22 06:24:00,72.2,68.0,30.02,ESE,109,0.0,2.0,87,0.00,,,0.00,weatherlink.com 1.10,2013-06-22 10:24:00,
2013-06-22 06:39:00,72.1,68.0,30.02,East,96,0.0,2.0,88,0.00,,,0.00,weatherlink.com 1.10,2013-06-22 10:39:00,
2013-06-22 06:54:00,72.1,69.0,30.03,ESE,113,0.0,2.0,89,0.00,,,0.00,weatherlink.com 1.10,2013-06-22 10:54:00,
2013-06-22 07:09:00,72.3,69.0,30.03,SE,130,1.0,8.0,89,0.00,,,0.00,weatherlink.com 1.10,2013-06-22 11:09:00,
2013-06-22 07:24:00,72.6,69.0,30.03,SE,129,0.0,4.0,88,0.00,,,0.00,weatherlink.com 1.10,2013-06-22 11:24:00,
2013-06-22 07:39:00,73.1,69.0,30.03,SE,130,0.0,7.0,88,0.00,,,0.00,weatherlink.com 1.10,2013-06-22 11:39:00,
2013-06-22 07:54:00,73.7,70.0,30.02,ESE,123,2.0,4.0,87,0.00,,,0.00,weatherlink.com 1.10,2013-06-22 11:54:00,
2013-06-22 08:09:00,74.4,70.0,30.02,SE,131,1.0,10.0,86,0.00,,,0.00,weatherlink.com 1.10,2013-06-22 12:09:00,
2013-06-22 08:24:00,75.3,70.0,30.03,SE,140,0.0,3.0,84,0.00,,,0.00,weatherlink.com 1.10,2013-06-22 12:24:00,
2013-06-22 08:40:00,76.6,71.0,30.04,SE,133,0.0,5.0,83,0.00,,,0.00,weatherlink.com 1.10,2013-06-22 12:40:00,
2013-06-22 08:55:00,77.8,72.0,30.05,SE,141,1.0,2.0,82,0.00,,,0.00,weatherlink.com 1.10,2013-06-22 12:55:00,
2013-06-22 09:10:00,78.7,72.0,30.05,SE,132,0.0,4.0,80,0.00,,,0.00,weatherlink.com 1.10,2013-06-22 13:10:00,
2013-06-22 09:25:00,79.4,73.0,30.05,SE,138,1.0,2.0,80,0.00,,,0.00,weatherlink.com 1.10,2013-06-22 13:25:00,
2013-06-22 09:40:00,79.4,72.0,30.05,SE,142,0.0,3.0,79,0.00,,,0.00,weatherlink.com 1.10,2013-06-22 13:40:00,
2013-06-22 09:55:00,80.4,72.0,30.05,SE,124,2.0,2.0,76,0.00,,,0.00,weatherlink.com 1.10,2013-06-22 13:55:00,
2013-06-22 10:10:00,81.1,73.0,30.06,SSE,148,1.0,2.0,76,0.00,,,0.00,weatherlink.com 1.10,2013-06-22 14:10:00,
2013-06-22 10:25:00,81.9,73.0,30.05,SE,132,0.0,3.0,74,0.00,,,0.00,weatherlink.com 1.10,2013-06-22 14:25:00,
2013-06-22 10:40:00,82.6,74.0,30.05,SE,134,0.0,4.0,76,0.00,,,0.00,weatherlink.com 1.10,2013-06-22 14:40:00,
2013-06-22 10:55:00,82.9,73.0,30.05,SE,136,1.0,3.0,72,0.00,,,0.00,weatherlink.com 1.10,2013-06-22 14:55:00,
2013-06-22 11:10:00,83.1,74.0,30.05,SE,142,0.0,2.0,73,0.00,,,0.00,weatherlink.com 1.10,2013-06-22 15:10:00,
2013-06-22 11:25:00,83.6,75.0,30.05,SE,138,1.0,2.0,74,0.00,,,0.00,weatherlink.com 1.10,2013-06-22 15:25:00,
2013-06-22 11:40:00,83.9,74.0,30.05,ESE,121,1.0,2.0,72,0.00,,,0.00,weatherlink.com 1.10,2013-06-22 15:40:00,
2013-06-22 11:55:00,84.6,74.0,30.05,SSE,150,1.0,4.0,71,0.00,,,0.00,weatherlink.com 1.10,2013-06-22 15:55:00,
2013-06-22 12:11:00,85.1,76.0,30.05,SE,130,0.0,3.0,75,0.00,,,0.00,weatherlink.com 1.10,2013-06-22 16:11:00,
2013-06-22 12:25:00,85.7,76.0,30.05,SE,142,1.0,3.0,72,0.00,,,0.00,weatherlink.com 1.10,2013-06-22 16:25:00,
2013-06-22 12:40:00,85.5,74.0,30.05,SE,144,0.0,3.0,69,0.00,,,0.00,weatherlink.com 1.10,2013-06-22 16:40:00,
2013-06-22 12:55:00,85.8,76.0,30.04,SE,138,1.0,3.0,72,0.00,,,0.00,weatherlink.com 1.10,2013-06-22 16:55:00,
2013-06-22 13:10:00,86.6,76.0,30.04,SSW,205,0.0,5.0,70,0.00,,,0.00,weatherlink.com 1.10,2013-06-22 17:10:00,
2013-06-22 13:25:00,87.5,76.0,30.04,SSE,164,0.0,7.0,68,0.00,,,0.00,weatherlink.com 1.10,2013-06-22 17:25:00,
2013-06-22 13:40:00,87.9,76.0,30.04,SSE,157,0.0,10.0,68,0.00,,,0.00,weatherlink.com 1.10,2013-06-22 17:40:00,
2013-06-22 13:55:00,87.1,75.0,30.04,SE,128,1.0,4.0,68,0.00,,,0.00,weatherlink.com 1.10,2013-06-22 17:55:00,
2013-06-22 14:10:00,86.6,75.0,30.03,SE,128,2.0,3.0,68,0.00,,,0.00,weatherlink.com 1.10,2013-06-22 18:10:00,
2013-06-22 14:25:00,86.5,75.0,30.02,SSE,159,0.0,3.0,69,0.00,,,0.00,weatherlink.com 1.10,2013-06-22 18:25:00,
2013-06-22 14:40:00,86.5,77.0,30.02,SE,134,1.0,4.0,72,0.00,,,0.00,weatherlink.com 1.10,2013-06-22 18:40:00,
2013-06-22 14:55:00,85.9,75.0,30.02,SSE,150,0.0,7.0,70,0.00,,,0.00,weatherlink.com 1.10,2013-06-22 18:55:00,
2013-06-22 15:10:00,86.2,76.0,30.01,SE,144,0.0,4.0,71,0.00,,,0.00,weatherlink.com 1.10,2013-06-22 19:10:00,
2013-06-22 15:25:00,85.0,73.0,30.00,SSE,163,5.0,13.0,67,0.00,,,0.00,weatherlink.com 1.10,2013-06-22 19:25:00,
2013-06-22 15:40:00,81.5,71.0,30.01,South,189,0.0,6.0,70,0.00,,,0.00,weatherlink.com 1.10,2013-06-22 19:40:00,
2013-06-22 15:55:00,80.5,70.0,30.00,SSE,164,1.0,4.0,70,0.00,,,0.00,weatherlink.com 1.10,2013-06-22 19:55:00,
2013-06-22 16:10:00,80.3,71.0,29.98,ESE,115,0.0,6.0,72,0.00,,,0.00,weatherlink.com 1.10,2013-06-22 20:10:00,
2013-06-22 16:25:00,80.2,72.0,29.97,ESE,107,0.0,3.0,75,0.00,,,0.00,weatherlink.com 1.10,2013-06-22 20:25:00,
2013-06-22 16:40:00,80.5,71.0,29.98,NW,315,2.0,2.0,72,0.00,,,0.00,weatherlink.com 1.10,2013-06-22 20:40:00,
2013-06-22 16:55:00,80.9,71.0,29.97,North,360,0.0,4.0,72,0.00,,,0.00,weatherlink.com 1.10,2013-06-22 20:55:00,
2013-06-22 17:10:00,81.2,72.0,29.97,NNE,26,0.0,2.0,73,0.00,,,0.00,weatherlink.com 1.10,2013-06-22 21:10:00,
2013-06-22 17:25:00,81.6,72.0,29.97,ENE,78,2.0,2.0,73,0.00,,,0.00,weatherlink.com 1.10,2013-06-22 21:25:00,
2013-06-22 17:40:00,82.0,73.0,29.96,East,88,1.0,7.0,74,0.00,,,0.00,weatherlink.com 1.10,2013-06-22 21:40:00,
2013-06-22 17:56:00,81.5,72.0,29.95,ENE,78,7.0,9.0,73,0.00,,,0.00,weatherlink.com 1.10,2013-06-22 21:56:00,
2013-06-22 18:11:00,80.7,73.0,29.95,ENE,66,4.0,14.0,76,0.00,,,0.00,weatherlink.com 1.10,2013-06-22 22:11:00,
2013-06-22 18:26:00,79.2,71.0,29.96,ESE,112,5.0,22.0,75,0.00,,,0.00,weatherlink.com 1.10,2013-06-22 22:26:00,
2013-06-22 18:41:00,78.6,70.0,29.97,East,97,8.0,15.0,75,0.00,,,0.00,weatherlink.com 1.10,2013-06-22 22:41:00,
2013-06-22 18:56:00,78.1,68.0,29.97,SE,130,3.0,16.0,71,0.00,,,0.00,weatherlink.com 1.10,2013-06-22 22:56:00,
2013-06-22 19:11:00,77.5,67.0,29.98,SE,134,2.0,11.0,71,0.00,,,0.00,weatherlink.com 1.10,2013-06-22 23:11:00,
2013-06-22 19:26:00,77.1,67.0,29.97,SE,141,3.0,5.0,71,0.00,,,0.00,weatherlink.com 1.10,2013-06-22 23:26:00,
2013-06-22 19:41:00,76.7,66.0,29.97,SSE,155,2.0,4.0,70,0.00,,,0.00,weatherlink.com 1.10,2013-06-22 23:41:00,
2013-06-22 19:56:00,76.5,66.0,29.99,ESE,109,0.0,3.0,71,0.00,,,0.00,weatherlink.com 1.10,2013-06-22 23:56:00,
2013-06-22 20:11:00,76.2,66.0,30.00,SE,138,0.0,1.0,71,0.00,,,0.00,weatherlink.com 1.10,2013-06-23 00:11:00,
2013-06-22 20:26:00,75.8,67.0,29.99,SE,125,1.0,2.0,73,0.00,,,0.00,weatherlink.com 1.10,2013-06-23 00:26:00,
2013-06-22 20:41:00,75.3,67.0,30.00,ESE,111,4.0,5.0,74,0.00,,,0.00,weatherlink.com 1.10,2013-06-23 00:41:00,
2013-06-22 20:56:00,75.2,66.0,30.00,ESE,106,4.0,9.0,74,0.00,,,0.00,weatherlink.com 1.10,2013-06-23 00:56:00,
2013-06-22 21:11:00,75.1,67.0,29.99,ESE,111,4.0,10.0,75,0.00,,,0.00,weatherlink.com 1.10,2013-06-23 01:11:00,
2013-06-22 21:26:00,74.9,67.0,30.00,ESE,106,2.0,8.0,75,0.00,,,0.00,weatherlink.com 1.10,2013-06-23 01:26:00,
2013-06-22 21:41:00,74.7,67.0,29.99,ESE,110,1.0,8.0,76,0.00,,,0.00,weatherlink.com 1.10,2013-06-23 01:41:00,
2013-06-22 21:56:00,74.4,67.0,30.00,ESE,113,0.0,5.0,77,0.00,,,0.00,weatherlink.com 1.10,2013-06-23 01:56:00,
2013-06-22 22:11:00,74.0,66.0,30.00,ESE,106,3.0,6.0,77,0.00,,,0.00,weatherlink.com 1.10,2013-06-23 02:11:00,
2013-06-22 22:26:00,73.9,67.0,30.00,East,84,0.0,5.0,78,0.00,,,0.00,weatherlink.com 1.10,2013-06-23 02:26:00,
2013-06-22 22:41:00,73.4,66.0,30.00,East,92,0.0,0.0,78,0.00,,,0.00,weatherlink.com 1.10,2013-06-23 02:41:00,
2013-06-22 22:56:00,72.8,66.0,30.00,East,92,0.0,0.0,80,0.00,,,0.00,weatherlink.com 1.10,2013-06-23 02:56:00,
2013-06-22 23:11:00,71.6,66.0,30.00,East,92,0.0,1.0,83,0.00,,,0.00,weatherlink.com 1.10,2013-06-23 03:11:00,
2013-06-22 23:26:00,71.0,66.0,30.00,East,90,2.0,3.0,83,0.00,,,0.00,weatherlink.com 1.10,2013-06-23 03:26:00,
2013-06-22 23:41:00,70.6,66.0,30.00,East,88,0.0,0.0,84,0.00,,,0.00,weatherlink.com 1.10,2013-06-23 03:41:00,
2013-06-22 23:56:00,70.4,66.0,30.00,East,88,0.0,0.0,85,0.00,,,0.00,weatherlink.com 1.10,2013-06-23 03:56:00,